Doddington, United Kingdom
Current Conditions -  °F | °C
As of 3:58 PM on Sunday 21 Dec 2014 (Local Time) from EGUN Reporting Station
Broken Clouds Broken Clouds  
Wind Chill: 43°   Ceiling: 2000
Heat Index: 49°   Visibility: 6mi
Dew Point: 44°   Wind: 20mph
Humidity: 82%   Direction: 230°SW
Pressure: 30.14"   Gusts: 30mph
Location:  52.5°N, 0.06°E
Report Text: EGUN 211558Z AUTO 23017G26KT 9999 BKN020 10/07 A3014 RMK AO2 PK WND 24031/05 BKN V SCT SLP210 T00970067 $
Loading
Personal Weather Stations






























Interactive Weather Map New forecast layout! Learn more

10-Day Weather Forecast

Advertisements
Track Severe Weather on mobile